sensor_id;sensor_type;location;lat;lon;timestamp;pressure;altitude;pressure_sealevel;temperature;humidity
64352;BME280;50680;52.626;-8.668;2022-07-29T00:00:13;101697.59;;;14.82;100.00
64352;BME280;50680;52.626;-8.668;2022-07-29T00:02:40;101697.41;;;14.85;100.00
64352;BME280;50680;52.626;-8.668;2022-07-29T00:05:08;101692.03;;;14.87;100.00
64352;BME280;50680;52.626;-8.668;2022-07-29T00:07:35;101685.69;;;14.89;100.00
64352;BME280;50680;52.626;-8.668;2022-07-29T00:10:03;101681.47;;;14.87;100.00
64352;BME280;50680;52.626;-8.668;2022-07-29T00:12:30;101696.16;;;14.91;100.00
64352;BME280;50680;52.626;-8.668;2022-07-29T00:14:57;101686.44;;;14.91;100.00
64352;BME280;50680;52.626;-8.668;2022-07-29T00:17:25;101683.81;;;14.91;100.00
64352;BME280;50680;52.626;-8.668;2022-07-29T00:19:52;101682.97;;;14.91;100.00
64352;BME280;50680;52.626;-8.668;2022-07-29T00:22:20;101693.53;;;14.91;100.00
64352;BME280;50680;52.626;-8.668;2022-07-29T00:24:48;101686.53;;;14.90;100.00
64352;BME280;50680;52.626;-8.668;2022-07-29T00:27:16;101678.53;;;14.91;100.00
64352;BME280;50680;52.626;-8.668;2022-07-29T00:29:43;101676.84;;;14.90;100.00
64352;BME280;50680;52.626;-8.668;2022-07-29T00:32:10;101678.75;;;14.88;100.00
64352;BME280;50680;52.626;-8.668;2022-07-29T00:34:37;101678.91;;;14.85;100.00
64352;BME280;50680;52.626;-8.668;2022-07-29T00:37:23;101677.53;;;14.79;100.00
64352;BME280;50680;52.626;-8.668;2022-07-29T00:39:50;101676.84;;;14.76;100.00
64352;BME280;50680;52.626;-8.668;2022-07-29T00:42:17;101668.34;;;14.71;100.00
64352;BME280;50680;52.626;-8.668;2022-07-29T00:44:44;101675.69;;;14.65;100.00
64352;BME280;50680;52.626;-8.668;2022-07-29T00:47:11;101672.53;;;14.60;100.00
64352;BME280;50680;52.626;-8.668;2022-07-29T00:49:40;101674.56;;;14.55;100.00
64352;BME280;50680;52.626;-8.668;2022-07-29T00:52:08;101675.66;;;14.51;100.00
64352;BME280;50680;52.626;-8.668;2022-07-29T00:54:38;101675.28;;;14.43;100.00
64352;BME280;50680;52.626;-8.668;2022-07-29T00:57:10;101680.56;;;14.43;100.00
64352;BME280;50680;52.626;-8.668;2022-07-29T00:59:38;101679.88;;;14.39;100.00
64352;BME280;50680;52.626;-8.668;2022-07-29T01:02:05;101684.69;;;14.33;100.00
64352;BME280;50680;52.626;-8.668;2022-07-29T01:04:32;101679.31;;;14.34;100.00
64352;BME280;50680;52.626;-8.668;2022-07-29T01:07:01;101679.69;;;14.28;100.00
64352;BME280;50680;52.626;-8.668;2022-07-29T01:09:29;101666.19;;;14.18;100.00
64352;BME280;50680;52.626;-8.668;2022-07-29T01:12:17;101676.75;;;14.18;100.00
64352;BME280;50680;52.626;-8.668;2022-07-29T01:14:46;101677.13;;;14.12;100.00
64352;BME280;50680;52.626;-8.668;2022-07-29T01:20:25;101667.69;;;14.08;100.00
64352;BME280;50680;52.626;-8.668;2022-07-29T01:28:57;101663.53;;;14.04;100.00
64352;BME280;50680;52.626;-8.668;2022-07-29T01:32:07;101657.09;;;13.94;100.00
64352;BME280;50680;52.626;-8.668;2022-07-29T01:37:29;101652.31;;;13.70;100.00
64352;BME280;50680;52.626;-8.668;2022-07-29T01:40:01;101645.28;;;13.54;100.00
64352;BME280;50680;52.626;-8.668;2022-07-29T01:42:43;101660.41;;;13.51;100.00
64352;BME280;50680;52.626;-8.668;2022-07-29T01:45:20;101665.16;;;13.44;100.00
64352;BME280;50680;52.626;-8.668;2022-07-29T01:48:00;101655.75;;;13.40;100.00
64352;BME280;50680;52.626;-8.668;2022-07-29T01:50:38;101641.53;;;13.27;100.00
64352;BME280;50680;52.626;-8.668;2022-07-29T01:53:10;101654.09;;;13.22;100.00
64352;BME280;50680;52.626;-8.668;2022-07-29T01:55:41;101664.47;;;13.25;100.00
64352;BME280;50680;52.626;-8.668;2022-07-29T01:58:12;101661.16;;;13.21;100.00
64352;BME280;50680;52.626;-8.668;2022-07-29T02:00:43;101659.56;;;13.19;100.00
64352;BME280;50680;52.626;-8.668;2022-07-29T02:03:12;101665.00;;;13.15;100.00
64352;BME280;50680;52.626;-8.668;2022-07-29T02:05:42;101657.34;;;13.11;100.00
64352;BME280;50680;52.626;-8.668;2022-07-29T02:08:13;101670.50;;;13.11;100.00
64352;BME280;50680;52.626;-8.668;2022-07-29T02:10:40;101670.66;;;13.08;100.00
64352;BME280;50680;52.626;-8.668;2022-07-29T02:13:11;101677.78;;;13.06;100.00
64352;BME280;50680;52.626;-8.668;2022-07-29T02:15:40;101660.41;;;13.03;100.00
64352;BME280;50680;52.626;-8.668;2022-07-29T02:18:13;101650.34;;;12.94;100.00
64352;BME280;50680;52.626;-8.668;2022-07-29T02:20:44;101657.34;;;12.95;100.00
64352;BME280;50680;52.626;-8.668;2022-07-29T02:23:17;101654.84;;;12.92;100.00
64352;BME280;50680;52.626;-8.668;2022-07-29T02:25:48;101654.78;;;12.93;100.00
64352;BME280;50680;52.626;-8.668;2022-07-29T02:28:17;101663.34;;;12.97;100.00
64352;BME280;50680;52.626;-8.668;2022-07-29T02:30:46;101664.31;;;12.96;100.00
64352;BME280;50680;52.626;-8.668;2022-07-29T02:33:15;101653.66;;;12.97;100.00
64352;BME280;50680;52.626;-8.668;2022-07-29T02:35:45;101656.97;;;13.01;100.00
64352;BME280;50680;52.626;-8.668;2022-07-29T02:38:15;101656.81;;;13.04;100.00
64352;BME280;50680;52.626;-8.668;2022-07-29T02:41:08;101660.22;;;13.06;100.00
64352;BME280;50680;52.626;-8.668;2022-07-29T02:43:39;101648.31;;;12.99;100.00
64352;BME280;50680;52.626;-8.668;2022-07-29T02:46:11;101653.44;;;13.02;100.00
64352;BME280;50680;52.626;-8.668;2022-07-29T02:51:36;101652.50;;;13.03;100.00
64352;BME280;50680;52.626;-8.668;2022-07-29T02:54:30;101656.91;;;13.03;100.00
64352;BME280;50680;52.626;-8.668;2022-07-29T02:57:00;101659.72;;;13.00;100.00
64352;BME280;50680;52.626;-8.668;2022-07-29T02:59:33;101659.13;;;12.94;100.00
64352;BME280;50680;52.626;-8.668;2022-07-29T03:02:02;101667.84;;;12.95;100.00
64352;BME280;50680;52.626;-8.668;2022-07-29T03:04:32;101657.50;;;12.92;100.00
64352;BME280;50680;52.626;-8.668;2022-07-29T03:07:01;101663.94;;;12.86;100.00
64352;BME280;50680;52.626;-8.668;2022-07-29T03:09:29;101672.94;;;12.82;100.00
64352;BME280;50680;52.626;-8.668;2022-07-29T03:11:57;101680.13;;;12.78;100.00
64352;BME280;50680;52.626;-8.668;2022-07-29T03:14:24;101681.06;;;12.77;100.00
64352;BME280;50680;52.626;-8.668;2022-07-29T03:16:52;101683.78;;;12.76;100.00
64352;BME280;50680;52.626;-8.668;2022-07-29T03:19:20;101682.94;;;12.75;100.00
64352;BME280;50680;52.626;-8.668;2022-07-29T03:21:47;101693.47;;;12.75;100.00
64352;BME280;50680;52.626;-8.668;2022-07-29T03:24:36;101689.06;;;12.76;100.00
64352;BME280;50680;52.626;-8.668;2022-07-29T03:27:04;101684.09;;;12.70;100.00
64352;BME280;50680;52.626;-8.668;2022-07-29T03:29:32;101686.38;;;12.60;100.00
64352;BME280;50680;52.626;-8.668;2022-07-29T03:32:04;101676.09;;;12.55;100.00
64352;BME280;50680;52.626;-8.668;2022-07-29T03:34:33;101688.31;;;12.56;100.00
64352;BME280;50680;52.626;-8.668;2022-07-29T03:37:00;101690.88;;;12.58;100.00
64352;BME280;50680;52.626;-8.668;2022-07-29T03:39:30;101678.56;;;12.58;100.00
64352;BME280;50680;52.626;-8.668;2022-07-29T03:41:59;101686.53;;;12.57;100.00
64352;BME280;50680;52.626;-8.668;2022-07-29T03:44:28;101683.97;;;12.55;100.00
64352;BME280;50680;52.626;-8.668;2022-07-29T03:46:57;101690.69;;;12.61;100.00
64352;BME280;50680;52.626;-8.668;2022-07-29T03:49:26;101687.00;;;12.65;100.00
64352;BME280;50680;52.626;-8.668;2022-07-29T03:51:54;101686.81;;;12.68;100.00
64352;BME280;50680;52.626;-8.668;2022-07-29T03:54:22;101675.38;;;12.69;100.00
64352;BME280;50680;52.626;-8.668;2022-07-29T03:56:50;101689.13;;;12.74;100.00
64352;BME280;50680;52.626;-8.668;2022-07-29T03:59:19;101682.75;;;12.78;100.00
64352;BME280;50680;52.626;-8.668;2022-07-29T04:01:48;101681.84;;;12.79;100.00
64352;BME280;50680;52.626;-8.668;2022-07-29T04:04:15;101680.03;;;12.80;100.00
64352;BME280;50680;52.626;-8.668;2022-07-29T04:06:45;101682.75;;;12.78;100.00
64352;BME280;50680;52.626;-8.668;2022-07-29T04:09:13;101687.09;;;12.79;100.00
64352;BME280;50680;52.626;-8.668;2022-07-29T04:11:41;101686.19;;;12.81;100.00
64352;BME280;50680;52.626;-8.668;2022-07-29T04:14:28;101684.31;;;12.83;100.00
64352;BME280;50680;52.626;-8.668;2022-07-29T04:16:55;101692.97;;;12.85;100.00
64352;BME280;50680;52.626;-8.668;2022-07-29T04:19:22;101691.03;;;12.88;100.00
64352;BME280;50680;52.626;-8.668;2022-07-29T04:21:49;101690.03;;;12.91;100.00
64352;BME280;50680;52.626;-8.668;2022-07-29T04:24:16;101693.41;;;12.93;100.00
64352;BME280;50680;52.626;-8.668;2022-07-29T04:26:45;101684.66;;;12.92;100.00
64352;BME280;50680;52.626;-8.668;2022-07-29T04:29:13;101684.84;;;12.89;100.00
64352;BME280;50680;52.626;-8.668;2022-07-29T04:31:41;101680.94;;;12.96;100.00
64352;BME280;50680;52.626;-8.668;2022-07-29T04:34:09;101681.78;;;12.97;100.00
64352;BME280;50680;52.626;-8.668;2022-07-29T04:36:36;101681.78;;;12.97;100.00
64352;BME280;50680;52.626;-8.668;2022-07-29T04:39:03;101673.88;;;12.97;100.00
64352;BME280;50680;52.626;-8.668;2022-07-29T04:41:31;101674.72;;;12.97;100.00
64352;BME280;50680;52.626;-8.668;2022-07-29T04:44:00;101662.44;;;12.98;100.00
64352;BME280;50680;52.626;-8.668;2022-07-29T04:46:33;101663.44;;;12.95;100.00
64352;BME280;50680;52.626;-8.668;2022-07-29T04:49:02;101652.91;;;12.95;100.00
64352;BME280;50680;52.626;-8.668;2022-07-29T04:51:29;101656.66;;;12.91;100.00
64352;BME280;50680;52.626;-8.668;2022-07-29T04:53:56;101657.56;;;12.90;100.00
64352;BME280;50680;52.626;-8.668;2022-07-29T04:56:23;101656.72;;;12.90;100.00
64352;BME280;50680;52.626;-8.668;2022-07-29T04:58:51;101660.19;;;12.90;100.00
64352;BME280;50680;52.626;-8.668;2022-07-29T05:01:18;101664.63;;;12.90;100.00
64352;BME280;50680;52.626;-8.668;2022-07-29T05:03:45;101666.16;;;12.94;100.00
64352;BME280;50680;52.626;-8.668;2022-07-29T05:06:12;101652.81;;;12.97;100.00
64352;BME280;50680;52.626;-8.668;2022-07-29T05:08:39;101663.94;;;13.02;100.00
64352;BME280;50680;52.626;-8.668;2022-07-29T05:11:07;101663.78;;;13.05;100.00
64352;BME280;50680;52.626;-8.668;2022-07-29T05:13:38;101652.31;;;13.06;100.00
64352;BME280;50680;52.626;-8.668;2022-07-29T05:16:12;101655.38;;;13.14;100.00
64352;BME280;50680;52.626;-8.668;2022-07-29T05:18:40;101640.53;;;13.13;100.00
64352;BME280;50680;52.626;-8.668;2022-07-29T05:21:07;101648.84;;;13.22;100.00
64352;BME280;50680;52.626;-8.668;2022-07-29T05:23:34;101644.34;;;13.24;100.00
64352;BME280;50680;52.626;-8.668;2022-07-29T05:26:01;101645.88;;;13.28;100.00
64352;BME280;50680;52.626;-8.668;2022-07-29T05:28:28;101650.94;;;13.32;100.00
64352;BME280;50680;52.626;-8.668;2022-07-29T05:30:55;101659.31;;;13.39;100.00
64352;BME280;50680;52.626;-8.668;2022-07-29T05:33:22;101660.41;;;13.51;100.00
64352;BME280;50680;52.626;-8.668;2022-07-29T05:36:03;101655.38;;;13.62;100.00
64352;BME280;50680;52.626;-8.668;2022-07-29T05:38:34;101661.38;;;13.80;100.00
64352;BME280;50680;52.626;-8.668;2022-07-29T05:41:03;101668.97;;;14.01;100.00
64352;BME280;50680;52.626;-8.668;2022-07-29T05:43:30;101677.72;;;14.17;100.00
64352;BME280;50680;52.626;-8.668;2022-07-29T05:45:57;101672.28;;;14.35;100.00
64352;BME280;50680;52.626;-8.668;2022-07-29T05:48:24;101675.31;;;14.57;100.00
64352;BME280;50680;52.626;-8.668;2022-07-29T05:50:52;101669.47;;;14.81;100.00
64352;BME280;50680;52.626;-8.668;2022-07-29T05:53:18;101671.28;;;15.36;100.00
64352;BME280;50680;52.626;-8.668;2022-07-29T05:55:51;101668.09;;;15.86;100.00
64352;BME280;50680;52.626;-8.668;2022-07-29T05:58:19;101672.97;;;16.58;100.00
64352;BME280;50680;52.626;-8.668;2022-07-29T06:00:46;101675.25;;;17.38;100.00
64352;BME280;50680;52.626;-8.668;2022-07-29T06:03:13;101672.69;;;18.20;100.00
64352;BME280;50680;52.626;-8.668;2022-07-29T06:05:40;101677.38;;;18.74;100.00
64352;BME280;50680;52.626;-8.668;2022-07-29T06:08:07;101671.78;;;19.23;100.00
64352;BME280;50680;52.626;-8.668;2022-07-29T06:10:35;101678.06;;;19.22;100.00
64352;BME280;50680;52.626;-8.668;2022-07-29T06:13:02;101677.28;;;18.98;100.00
64352;BME280;50680;52.626;-8.668;2022-07-29T06:15:29;101678.44;;;18.72;100.00
64352;BME280;50680;52.626;-8.668;2022-07-29T06:17:55;101674.69;;;18.40;100.00
64352;BME280;50680;52.626;-8.668;2022-07-29T06:20:30;101678.50;;;18.14;100.00
64352;BME280;50680;52.626;-8.668;2022-07-29T06:22:59;101675.53;;;17.94;100.00
64352;BME280;50680;52.626;-8.668;2022-07-29T06:25:26;101680.66;;;17.84;100.00
64352;BME280;50680;52.626;-8.668;2022-07-29T06:27:56;101678.22;;;17.81;100.00
64352;BME280;50680;52.626;-8.668;2022-07-29T06:30:23;101691.38;;;17.83;100.00
64352;BME280;50680;52.626;-8.668;2022-07-29T06:32:50;101700.06;;;17.85;100.00
64352;BME280;50680;52.626;-8.668;2022-07-29T06:35:17;101689.88;;;17.92;100.00
64352;BME280;50680;52.626;-8.668;2022-07-29T06:38:05;101692.44;;;18.04;100.00
64352;BME280;50680;52.626;-8.668;2022-07-29T06:40:51;101692.25;;;18.19;100.00
64352;BME280;50680;52.626;-8.668;2022-07-29T06:43:40;101700.75;;;18.35;100.00
64352;BME280;50680;52.626;-8.668;2022-07-29T06:46:18;101706.81;;;18.49;100.00
64352;BME280;50680;52.626;-8.668;2022-07-29T06:48:46;101701.03;;;18.55;100.00
64352;BME280;50680;52.626;-8.668;2022-07-29T06:51:17;101708.75;;;18.58;100.00
64352;BME280;50680;52.626;-8.668;2022-07-29T06:53:50;101714.06;;;18.47;100.00
64352;BME280;50680;52.626;-8.668;2022-07-29T06:56:30;101703.28;;;18.26;100.00
64352;BME280;50680;52.626;-8.668;2022-07-29T06:59:04;101675.19;;;17.99;100.00
64352;BME280;50680;52.626;-8.668;2022-07-29T07:01:31;101705.72;;;18.04;100.00
64352;BME280;50680;52.626;-8.668;2022-07-29T07:03:58;101708.63;;;18.01;100.00
64352;BME280;50680;52.626;-8.668;2022-07-29T07:06:25;101694.25;;;18.04;100.00
64352;BME280;50680;52.626;-8.668;2022-07-29T07:08:51;101689.34;;;18.11;100.00
64352;BME280;50680;52.626;-8.668;2022-07-29T07:11:18;101689.13;;;18.14;100.00
64352;BME280;50680;52.626;-8.668;2022-07-29T07:13:45;101695.88;;;18.18;100.00
64352;BME280;50680;52.626;-8.668;2022-07-29T07:16:12;101706.53;;;18.29;100.00
64352;BME280;50680;52.626;-8.668;2022-07-29T07:18:39;101704.13;;;18.37;100.00
64352;BME280;50680;52.626;-8.668;2022-07-29T07:21:07;101696.78;;;18.41;100.00
64352;BME280;50680;52.626;-8.668;2022-07-29T07:23:34;101712.84;;;18.51;100.00
64352;BME280;50680;52.626;-8.668;2022-07-29T07:26:01;101720.22;;;18.58;100.00
64352;BME280;50680;52.626;-8.668;2022-07-29T07:28:28;101703.56;;;18.68;100.00
64352;BME280;50680;52.626;-8.668;2022-07-29T07:30:55;101708.28;;;18.75;100.00
64352;BME280;50680;52.626;-8.668;2022-07-29T07:33:22;101704.22;;;18.83;100.00
64352;BME280;50680;52.626;-8.668;2022-07-29T07:35:49;101708.91;;;18.90;100.00
64352;BME280;50680;52.626;-8.668;2022-07-29T07:38:16;101708.19;;;19.00;100.00
64352;BME280;50680;52.626;-8.668;2022-07-29T07:40:43;101713.03;;;19.06;100.00
64352;BME280;50680;52.626;-8.668;2022-07-29T07:43:10;101705.41;;;19.12;100.00
64352;BME280;50680;52.626;-8.668;2022-07-29T07:45:36;101708.03;;;19.24;100.00
64352;BME280;50680;52.626;-8.668;2022-07-29T07:48:04;101702.22;;;19.30;100.00
64352;BME280;50680;52.626;-8.668;2022-07-29T07:50:31;101707.78;;;19.38;100.00
64352;BME280;50680;52.626;-8.668;2022-07-29T07:52:58;101696.63;;;19.44;100.00
64352;BME280;50680;52.626;-8.668;2022-07-29T07:55:26;101704.13;;;19.50;100.00
64352;BME280;50680;52.626;-8.668;2022-07-29T07:57:54;101696.81;;;19.64;100.00
64352;BME280;50680;52.626;-8.668;2022-07-29T08:00:21;101704.66;;;19.77;100.00
64352;BME280;50680;52.626;-8.668;2022-07-29T08:02:49;101703.78;;;19.87;100.00
64352;BME280;50680;52.626;-8.668;2022-07-29T08:05:17;101706.91;;;19.92;100.00
64352;BME280;50680;52.626;-8.668;2022-07-29T08:07:46;101706.66;;;19.96;100.00
64352;BME280;50680;52.626;-8.668;2022-07-29T08:10:14;101712.94;;;19.95;100.00
64352;BME280;50680;52.626;-8.668;2022-07-29T08:12:43;101710.38;;;19.93;100.00
64352;BME280;50680;52.626;-8.668;2022-07-29T08:15:10;101719.50;;;19.90;100.00
64352;BME280;50680;52.626;-8.668;2022-07-29T08:17:37;101719.88;;;19.86;100.00
64352;BME280;50680;52.626;-8.668;2022-07-29T08:20:04;101716.97;;;19.89;100.00
64352;BME280;50680;52.626;-8.668;2022-07-29T08:22:31;101720.31;;;19.91;100.00
64352;BME280;50680;52.626;-8.668;2022-07-29T08:24:58;101717.22;;;19.86;100.00
64352;BME280;50680;52.626;-8.668;2022-07-29T08:27:25;101717.78;;;19.89;100.00
64352;BME280;50680;52.626;-8.668;2022-07-29T08:30:10;101712.81;;;19.96;100.00
64352;BME280;50680;52.626;-8.668;2022-07-29T08:32:37;101718.47;;;20.03;100.00
64352;BME280;50680;52.626;-8.668;2022-07-29T08:35:22;101710.94;;;20.08;100.00
64352;BME280;50680;52.626;-8.668;2022-07-29T08:37:50;101713.34;;;20.11;100.00
64352;BME280;50680;52.626;-8.668;2022-07-29T08:40:17;101711.28;;;20.15;100.00
64352;BME280;50680;52.626;-8.668;2022-07-29T08:42:44;101720.31;;;20.23;100.00
64352;BME280;50680;52.626;-8.668;2022-07-29T08:45:12;101720.88;;;20.27;100.00
64352;BME280;50680;52.626;-8.668;2022-07-29T08:47:39;101721.47;;;20.31;100.00
64352;BME280;50680;52.626;-8.668;2022-07-29T08:50:08;101726.88;;;20.40;100.00
64352;BME280;50680;52.626;-8.668;2022-07-29T08:52:36;101724.53;;;20.47;100.00
64352;BME280;50680;52.626;-8.668;2022-07-29T08:55:08;101724.91;;;20.42;100.00
64352;BME280;50680;52.626;-8.668;2022-07-29T08:57:38;101714.91;;;20.56;100.00
64352;BME280;50680;52.626;-8.668;2022-07-29T09:00:21;101719.22;;;20.78;100.00
64352;BME280;50680;52.626;-8.668;2022-07-29T09:02:53;101722.56;;;21.01;100.00
64352;BME280;50680;52.626;-8.668;2022-07-29T09:05:23;101715.22;;;21.34;100.00
64352;BME280;50680;52.626;-8.668;2022-07-29T09:07:51;101708.81;;;21.56;100.00
64352;BME280;50680;52.626;-8.668;2022-07-29T09:10:18;101702.09;;;21.81;100.00
64352;BME280;50680;52.626;-8.668;2022-07-29T09:12:46;101690.00;;;22.06;100.00
64352;BME280;50680;52.626;-8.668;2022-07-29T09:15:13;101695.59;;;22.23;100.00
64352;BME280;50680;52.626;-8.668;2022-07-29T09:17:48;101695.75;;;22.31;100.00
64352;BME280;50680;52.626;-8.668;2022-07-29T09:20:18;101700.38;;;22.19;100.00
64352;BME280;50680;52.626;-8.668;2022-07-29T09:22:46;101704.31;;;21.95;100.00
64352;BME280;50680;52.626;-8.668;2022-07-29T09:25:35;101693.66;;;21.86;100.00
64352;BME280;50680;52.626;-8.668;2022-07-29T09:30:50;101681.00;;;22.07;100.00
64352;BME280;50680;52.626;-8.668;2022-07-29T09:33:18;101690.81;;;22.36;100.00
64352;BME280;50680;52.626;-8.668;2022-07-29T09:35:45;101684.88;;;22.42;100.00
64352;BME280;50680;52.626;-8.668;2022-07-29T09:38:24;101685.28;;;22.47;100.00
64352;BME280;50680;52.626;-8.668;2022-07-29T09:40:58;101682.59;;;22.47;100.00
64352;BME280;50680;52.626;-8.668;2022-07-29T09:43:32;101685.88;;;22.41;100.00
64352;BME280;50680;52.626;-8.668;2022-07-29T09:46:12;101696.16;;;22.36;100.00
64352;BME280;50680;52.626;-8.668;2022-07-29T09:48:40;101695.88;;;22.20;100.00
64352;BME280;50680;52.626;-8.668;2022-07-29T09:51:19;101700.69;;;21.96;100.00
64352;BME280;50680;52.626;-8.668;2022-07-29T09:54:38;101697.88;;;21.98;100.00
64352;BME280;50680;52.626;-8.668;2022-07-29T09:57:08;101695.72;;;22.21;100.00
64352;BME280;50680;52.626;-8.668;2022-07-29T09:59:39;101691.34;;;22.49;100.00
64352;BME280;50680;52.626;-8.668;2022-07-29T10:02:16;101702.81;;;22.60;100.00
64352;BME280;50680;52.626;-8.668;2022-07-29T10:04:49;101706.78;;;22.56;100.00
64352;BME280;50680;52.626;-8.668;2022-07-29T10:07:16;101699.94;;;22.33;100.00
64352;BME280;50680;52.626;-8.668;2022-07-29T10:09:54;101706.69;;;22.18;100.00
64352;BME280;50680;52.626;-8.668;2022-07-29T10:12:21;101700.25;;;22.21;100.00
64352;BME280;50680;52.626;-8.668;2022-07-29T10:14:49;101700.13;;;22.03;100.00
64352;BME280;50680;52.626;-8.668;2022-07-29T10:17:17;101701.25;;;22.00;100.00
64352;BME280;50680;52.626;-8.668;2022-07-29T10:19:45;101701.53;;;21.97;100.00
64352;BME280;50680;52.626;-8.668;2022-07-29T10:22:12;101704.31;;;22.05;100.00
64352;BME280;50680;52.626;-8.668;2022-07-29T10:24:40;101691.81;;;22.15;100.00
64352;BME280;50680;52.626;-8.668;2022-07-29T10:27:08;101700.66;;;22.26;100.00
64352;BME280;50680;52.626;-8.668;2022-07-29T10:29:35;101696.56;;;22.41;100.00
64352;BME280;50680;52.626;-8.668;2022-07-29T10:35:29;101703.97;;;22.95;99.01
64352;BME280;50680;52.626;-8.668;2022-07-29T10:41:24;101713.19;;;22.82;95.52
64352;BME280;50680;52.626;-8.668;2022-07-29T10:44:18;101723.47;;;22.77;96.83
64352;BME280;50680;52.626;-8.668;2022-07-29T10:46:50;101716.31;;;22.68;98.48
64352;BME280;50680;52.626;-8.668;2022-07-29T10:49:19;101720.75;;;22.49;98.50
64352;BME280;50680;52.626;-8.668;2022-07-29T10:59:43;101710.13;;;22.67;100.00
64352;BME280;50680;52.626;-8.668;2022-07-29T11:05:10;101711.50;;;22.71;98.70
64352;BME280;50680;52.626;-8.668;2022-07-29T11:10:25;101717.34;;;22.95;99.92
64352;BME280;50680;52.626;-8.668;2022-07-29T11:12:57;101709.50;;;22.83;99.00
64352;BME280;50680;52.626;-8.668;2022-07-29T11:15:24;101707.84;;;22.72;98.78
64352;BME280;50680;52.626;-8.668;2022-07-29T11:20:45;101709.25;;;22.29;98.85
64352;BME280;50680;52.626;-8.668;2022-07-29T11:23:28;101700.41;;;22.00;100.00
64352;BME280;50680;52.626;-8.668;2022-07-29T11:31:41;101712.34;;;21.76;100.00
64352;BME280;50680;52.626;-8.668;2022-07-29T11:39:37;101718.53;;;21.67;100.00
64352;BME280;50680;52.626;-8.668;2022-07-29T11:45:00;101713.50;;;21.73;100.00
64352;BME280;50680;52.626;-8.668;2022-07-29T11:47:49;101709.38;;;21.89;100.00
64352;BME280;50680;52.626;-8.668;2022-07-29T11:50:33;101702.63;;;22.24;100.00
64352;BME280;50680;52.626;-8.668;2022-07-29T11:53:05;101709.59;;;22.64;100.00
64352;BME280;50680;52.626;-8.668;2022-07-29T11:55:38;101700.19;;;22.87;100.00
64352;BME280;50680;52.626;-8.668;2022-07-29T11:58:21;101699.19;;;22.88;99.26
64352;BME280;50680;52.626;-8.668;2022-07-29T12:00:51;101698.78;;;22.93;99.92
64352;BME280;50680;52.626;-8.668;2022-07-29T12:03:38;101693.28;;;22.95;97.97
64352;BME280;50680;52.626;-8.668;2022-07-29T12:06:12;101694.22;;;23.03;98.52
64352;BME280;50680;52.626;-8.668;2022-07-29T12:08:41;101685.25;;;23.22;99.66
64352;BME280;50680;52.626;-8.668;2022-07-29T12:11:19;101686.44;;;23.38;98.05
64352;BME280;50680;52.626;-8.668;2022-07-29T12:13:50;101678.69;;;23.35;95.68
64352;BME280;50680;52.626;-8.668;2022-07-29T12:16:19;101691.47;;;23.41;96.96
64352;BME280;50680;52.626;-8.668;2022-07-29T12:18:58;101682.66;;;23.31;97.87
64352;BME280;50680;52.626;-8.668;2022-07-29T12:21:27;101693.22;;;23.32;96.94
64352;BME280;50680;52.626;-8.668;2022-07-29T12:23:56;101686.44;;;23.38;96.87
64352;BME280;50680;52.626;-8.668;2022-07-29T12:26:30;101689.31;;;23.44;97.44
64352;BME280;50680;52.626;-8.668;2022-07-29T12:28:59;101680.69;;;23.51;97.33
64352;BME280;50680;52.626;-8.668;2022-07-29T12:31:28;101678.69;;;23.53;95.85
64352;BME280;50680;52.626;-8.668;2022-07-29T12:34:12;101690.09;;;23.37;94.85
64352;BME280;50680;52.626;-8.668;2022-07-29T12:36:40;101695.16;;;23.40;96.14
64352;BME280;50680;52.626;-8.668;2022-07-29T12:39:08;101694.28;;;23.21;96.08
64352;BME280;50680;52.626;-8.668;2022-07-29T12:41:36;101690.00;;;23.01;96.60
64352;BME280;50680;52.626;-8.668;2022-07-29T12:44:04;101679.84;;;23.04;98.30
64352;BME280;50680;52.626;-8.668;2022-07-29T12:46:31;101680.53;;;23.06;99.06
64352;BME280;50680;52.626;-8.668;2022-07-29T12:48:58;101678.13;;;23.13;97.24
64352;BME280;50680;52.626;-8.668;2022-07-29T12:51:36;101667.91;;;22.99;95.92
64352;BME280;50680;52.626;-8.668;2022-07-29T12:54:04;101661.47;;;22.91;98.14
64352;BME280;50680;52.626;-8.668;2022-07-29T12:56:31;101674.09;;;22.71;97.84
64352;BME280;50680;52.626;-8.668;2022-07-29T12:59:16;101680.81;;;22.48;99.88
64352;BME280;50680;52.626;-8.668;2022-07-29T13:01:44;101687.72;;;22.21;100.00
64352;BME280;50680;52.626;-8.668;2022-07-29T13:04:28;101687.75;;;22.02;100.00
64352;BME280;50680;52.626;-8.668;2022-07-29T13:09:37;101696.75;;;21.91;100.00
64352;BME280;50680;52.626;-8.668;2022-07-29T13:12:10;101679.75;;;22.02;100.00
64352;BME280;50680;52.626;-8.668;2022-07-29T13:14:39;101679.16;;;22.17;100.00
64352;BME280;50680;52.626;-8.668;2022-07-29T13:19:53;101671.69;;;22.31;100.00
64352;BME280;50680;52.626;-8.668;2022-07-29T13:22:22;101672.06;;;22.46;100.00
64352;BME280;50680;52.626;-8.668;2022-07-29T13:24:50;101684.78;;;22.34;100.00
64352;BME280;50680;52.626;-8.668;2022-07-29T13:27:22;101682.81;;;22.16;100.00
64352;BME280;50680;52.626;-8.668;2022-07-29T13:29:50;101675.50;;;21.99;100.00
64352;BME280;50680;52.626;-8.668;2022-07-29T13:32:23;101688.44;;;21.94;100.00
64352;BME280;50680;52.626;-8.668;2022-07-29T13:35:02;101674.13;;;21.75;100.00
64352;BME280;50680;52.626;-8.668;2022-07-29T13:37:32;101672.00;;;21.89;100.00
64352;BME280;50680;52.626;-8.668;2022-07-29T13:40:02;101679.56;;;22.23;100.00
64352;BME280;50680;52.626;-8.668;2022-07-29T13:42:30;101675.81;;;22.63;100.00
64352;BME280;50680;52.626;-8.668;2022-07-29T13:44:58;101669.19;;;22.95;100.00
64352;BME280;50680;52.626;-8.668;2022-07-29T13:47:26;101673.53;;;22.96;100.00